CheckWX is a tool to help pilots better visualize weather data.  It is not intended as a substitute for an official pre-flight weather briefing.

04:01:58 UTC

ENBL METAR
Bringeland Airport
Førde, Norway
Current

14 hours ago

ENBL 251420Z 27008KT 9999 FEW030 SCT035 BKN040 09/02 Q1008
Observed
May-25 @ 14:20 UTC
Wind
  • 270° at 8 KTS
Visibility
10,000+ meters
Flight Rules
VFR
Cloud Levels
  • Few at 3,000' AGL
  • Scattered at 3,500' AGL
  • Broken at 4,000' AGL
Temperature
C / 48°F
Dewpoint
C / 36°F
Humidity
62%
Altimeter
29.76" Hg
Pressure
1007.92 hPa
Previous

14 hours ago

ENBL 251350Z 26009KT 9999 FEW030 SCT042 BKN050 10/02 Q1008
Observed
May-25 @ 13:50 UTC
Wind
  • 260° at 9 KTS
Visibility
10,000+ meters
Flight Rules
VFR
Cloud Levels
  • Few at 3,000' AGL
  • Scattered at 4,200' AGL
  • Broken at 5,000' AGL
Temperature
10°C / 50°F
Dewpoint
C / 36°F
Humidity
58%
Altimeter
29.76" Hg
Pressure
1007.92 hPa
Previous

15 hours ago

ENBL 251320Z 26008KT 9999 FEW030 SCT042 BKN050 10/02 Q1008
Observed
May-25 @ 13:20 UTC
Wind
  • 260° at 8 KTS
Visibility
10,000+ meters
Flight Rules
VFR
Cloud Levels
  • Few at 3,000' AGL
  • Scattered at 4,200' AGL
  • Broken at 5,000' AGL
Temperature
10°C / 50°F
Dewpoint
C / 36°F
Humidity
58%
Altimeter
29.76" Hg
Pressure
1007.92 hPa